Time;durP1;ratioP1;P1;durP2;ratioP2;P2;SDS_P1;SDS_P2;PMS_P1;PMS_P2;Temp;Humidity;BMP_temperature;BMP_pressure;BME280_temperature;BME280_humidity;BME280_pressure;Samples;Min_cycle;Max_cycle;Signal;HPM_P1;HPM_P2
2021/11/21 00:00:30;;;;;;;27.25;19.73;;;15.50;75.80;;;;;;4264997;27;20047;-67
2021/11/21 00:02:36;;;;;;;23.02;18.35;;;15.50;75.80;;;;;;4259564;27;20062;-75
2021/11/21 00:04:39;;;;;;;24.42;18.85;;;15.50;75.80;;;;;;4271694;27;20054;-74
2021/11/21 00:06:42;;;;;;;24.00;18.77;;;15.50;75.80;;;;;;4258714;27;20047;-75
2021/11/21 00:08:45;;;;;;;22.73;17.92;;;15.40;75.80;;;;;;4261555;27;20061;-75
2021/11/21 00:10:50;;;;;;;24.60;18.42;;;15.50;75.90;;;;;;4266945;27;20047;-76
2021/11/21 00:12:53;;;;;;;22.67;18.73;;;15.40;75.80;;;;;;4258176;27;20072;-74
2021/11/21 00:14:56;;;;;;;23.42;17.65;;;15.40;75.80;;;;;;4269875;27;20058;-74
2021/11/21 00:17:01;;;;;;;24.42;18.70;;;15.40;75.80;;;;;;4258123;27;20055;-71
2021/11/21 00:19:04;;;;;;;23.25;17.77;;;15.40;75.90;;;;;;4261269;27;20047;-72
2021/11/21 00:21:07;;;;;;;24.65;18.83;;;15.40;75.80;;;;;;4274854;27;20051;-69
2021/11/21 00:23:11;;;;;;;24.63;18.75;;;15.40;75.90;;;;;;4274867;27;20281;-71
2021/11/21 00:25:14;;;;;;;23.25;17.83;;;15.40;75.90;;;;;;4262502;27;20075;-70
2021/11/21 00:27:19;;;;;;;23.70;18.00;;;15.40;75.90;;;;;;4274390;27;20051;-72
2021/11/21 00:29:22;;;;;;;22.63;17.75;;;15.40;75.90;;;;;;4271545;27;20061;-65
2021/11/21 00:31:25;;;;;;;21.95;17.45;;;15.40;76.00;;;;;;4265110;27;20099;-74
2021/11/21 00:33:29;;;;;;;21.38;16.45;;;15.40;76.00;;;;;;4274689;27;20047;-64
2021/11/21 00:35:33;;;;;;;21.05;16.48;;;15.40;76.00;;;;;;4262758;27;20059;-64
2021/11/21 00:37:36;;;;;;;21.23;17.25;;;15.30;76.00;;;;;;4274452;27;20095;-76
2021/11/21 00:39:39;;;;;;;22.65;17.77;;;15.40;76.00;;;;;;4272330;27;20061;-68
2021/11/21 00:41:42;;;;;;;22.50;17.52;;;15.40;76.00;;;;;;4265303;27;20059;-65
2021/11/21 00:43:46;;;;;;;21.65;16.95;;;15.30;76.00;;;;;;4275876;27;20051;-67
2021/11/21 00:45:49;;;;;;;22.85;17.15;;;15.30;76.10;;;;;;4271489;27;20276;-68
2021/11/21 00:47:53;;;;;;;21.33;16.48;;;15.30;76.10;;;;;;4277952;27;20051;-73
2021/11/21 00:49:55;;;;;;;20.90;16.65;;;15.30;76.00;;;;;;4273177;27;20051;-74
2021/11/21 00:51:59;;;;;;;19.90;16.52;;;15.30;76.10;;;;;;4270057;27;20047;-72
2021/11/21 00:54:08;;;;;;;19.10;15.77;;;15.30;76.10;;;;;;4258210;27;20047;-73
2021/11/21 00:56:12;;;;;;;20.67;16.45;;;15.30;76.10;;;;;;4262612;27;20051;-71
2021/11/21 00:58:15;;;;;;;19.30;15.75;;;15.30;76.10;;;;;;4274363;27;20051;-75
2021/11/21 01:00:20;;;;;;;19.70;15.50;;;15.30;76.10;;;;;;4254954;27;20055;-74
2021/11/21 01:02:23;;;;;;;19.45;15.88;;;15.30;76.10;;;;;;4265349;27;20055;-71
2021/11/21 01:04:26;;;;;;;19.67;15.35;;;15.30;76.10;;;;;;4275366;27;20478;-73
2021/11/21 01:06:30;;;;;;;18.38;15.07;;;15.30;76.10;;;;;;4263988;27;20047;-74
2021/11/21 01:08:33;;;;;;;19.40;14.63;;;15.30;76.20;;;;;;4273515;27;20057;-74
2021/11/21 01:10:36;;;;;;;18.77;14.60;;;15.30;76.20;;;;;;4272706;27;20053;-74
2021/11/21 01:12:42;;;;;;;19.25;14.90;;;15.30;76.20;;;;;;4264022;27;20047;-74
2021/11/21 01:14:45;;;;;;;17.20;13.82;;;15.30;76.20;;;;;;4275551;27;20055;-72
2021/11/21 01:16:50;;;;;;;18.77;14.40;;;15.30;76.20;;;;;;4264510;27;20092;-69
2021/11/21 01:18:53;;;;;;;18.23;14.90;;;15.30;76.20;;;;;;4273461;27;20107;-73
2021/11/21 01:20:56;;;;;;;18.58;14.57;;;15.30;76.20;;;;;;4272935;27;20276;-74
2021/11/21 01:22:59;;;;;;;18.63;14.88;;;15.30;76.30;;;;;;4245202;27;20059;-70
2021/11/21 01:25:05;;;;;;;17.90;13.75;;;15.30;76.30;;;;;;4274380;27;20288;-66
2021/11/21 01:27:08;;;;;;;17.92;14.27;;;15.20;76.20;;;;;;4263357;27;20047;-65
2021/11/21 01:29:11;;;;;;;18.10;14.65;;;15.20;76.20;;;;;;4271788;27;20050;-69
2021/11/21 01:31:14;;;;;;;17.95;14.05;;;15.20;76.20;;;;;;4272499;27;20169;-73
2021/11/21 01:33:18;;;;;;;18.35;13.90;;;15.20;76.20;;;;;;4262835;27;20047;-65
2021/11/21 01:35:21;;;;;;;18.65;15.10;;;15.20;76.30;;;;;;4274048;27;20058;-74
2021/11/21 01:37:24;;;;;;;16.63;14.20;;;15.30;76.30;;;;;;4245570;27;20077;-73
2021/11/21 01:39:27;;;;;;;17.73;14.52;;;15.30;76.30;;;;;;4271038;27;20050;-70
2021/11/21 01:41:30;;;;;;;16.50;13.48;;;15.30;76.90;;;;;;4272004;27;20047;-69
2021/11/21 01:43:34;;;;;;;16.40;13.93;;;15.30;76.40;;;;;;4261965;27;20051;-72
2021/11/21 01:45:37;;;;;;;17.60;14.65;;;15.20;76.30;;;;;;4273844;27;20050;-67
2021/11/21 01:47:43;;;;;;;16.60;13.30;;;15.20;76.30;;;;;;4264128;27;20100;-75
2021/11/21 01:49:48;;;;;;;16.80;13.85;;;15.20;76.40;;;;;;4270550;27;20057;-74
2021/11/21 01:51:51;;;;;;;17.25;13.60;;;15.20;76.30;;;;;;4271866;27;20043;-72
2021/11/21 01:53:54;;;;;;;16.92;13.55;;;15.20;76.30;;;;;;4262030;27;20280;-74
2021/11/21 01:55:58;;;;;;;18.05;13.68;;;15.20;76.40;;;;;;4274258;27;20095;-73
2021/11/21 01:58:01;;;;;;;19.70;14.65;;;15.20;76.40;;;;;;4265207;27;20286;-68
2021/11/21 02:00:06;;;;;;;16.65;13.38;;;15.20;76.40;;;;;;4271131;27;20092;-73
2021/11/21 02:02:09;;;;;;;17.10;14.07;;;15.20;76.40;;;;;;4253540;27;20055;-70
2021/11/21 02:04:12;;;;;;;16.83;13.27;;;15.20;76.40;;;;;;4261548;27;20039;-74
2021/11/21 02:06:17;;;;;;;19.23;15.27;;;15.20;76.40;;;;;;4272999;27;20095;-75
2021/11/21 02:08:20;;;;;;;17.85;14.25;;;15.20;76.40;;;;;;4263572;27;20331;-70
2021/11/21 02:10:24;;;;;;;17.35;13.65;;;15.20;76.40;;;;;;4269720;27;20342;-73
2021/11/21 02:12:27;;;;;;;17.90;14.57;;;15.20;76.50;;;;;;4271399;27;20051;-70
2021/11/21 02:14:30;;;;;;;17.48;13.20;;;15.20;76.40;;;;;;4261275;27;20051;-70
2021/11/21 02:16:34;;;;;;;15.43;13.18;;;15.20;76.50;;;;;;4272735;27;20071;-66
2021/11/21 02:18:37;;;;;;;17.08;13.80;;;15.20;76.50;;;;;;4267334;27;20050;-65
2021/11/21 02:20:46;;;;;;;17.52;14.13;;;15.20;76.50;;;;;;4259838;27;20058;-67
2021/11/21 02:22:49;;;;;;;17.33;13.48;;;15.20;76.50;;;;;;4256836;27;20376;-73
2021/11/21 02:24:51;;;;;;;16.52;13.57;;;15.10;76.50;;;;;;4266670;27;20046;-71
2021/11/21 02:26:54;;;;;;;17.35;13.90;;;15.20;76.50;;;;;;4255638;27;20051;-71
2021/11/21 02:28:57;;;;;;;18.30;13.82;;;15.20;76.50;;;;;;4263991;27;20051;-71
2021/11/21 02:31:01;;;;;;;16.42;13.02;;;15.20;76.60;;;;;;4259874;27;20276;-73
2021/11/21 02:33:09;;;;;;;17.85;14.00;;;15.20;76.50;;;;;;4256797;27;20035;-67
2021/11/21 02:35:12;;;;;;;17.67;14.10;;;15.20;76.60;;;;;;4267301;27;20051;-65
2021/11/21 02:37:16;;;;;;;17.25;13.73;;;15.10;76.60;;;;;;4256667;27;20058;-65
2021/11/21 02:39:19;;;;;;;16.08;13.13;;;15.10;76.50;;;;;;4264875;27;20212;-68
2021/11/21 02:41:22;;;;;;;18.38;14.45;;;15.10;76.50;;;;;;4241304;27;20058;-73
2021/11/21 02:43:26;;;;;;;15.80;13.23;;;15.10;76.60;;;;;;4256878;27;20095;-69
2021/11/21 02:45:29;;;;;;;17.63;14.32;;;15.10;76.60;;;;;;4266983;27;20055;-74
2021/11/21 02:47:33;;;;;;;18.80;14.05;;;15.10;76.60;;;;;;4255448;28;20077;-68
2021/11/21 02:49:38;;;;;;;18.40;14.82;;;15.10;76.60;;;;;;4263271;27;20051;-71
2021/11/21 02:51:41;;;;;;;16.40;12.95;;;15.10;76.60;;;;;;4259218;27;20047;-72
2021/11/21 02:53:46;;;;;;;18.17;13.82;;;15.10;76.60;;;;;;4256790;27;20103;-68
2021/11/21 02:55:52;;;;;;;16.38;13.48;;;15.10;76.60;;;;;;4266886;27;20303;-65
2021/11/21 02:57:55;;;;;;;16.30;12.98;;;15.10;76.60;;;;;;4255386;28;20051;-73
2021/11/21 03:00:00;;;;;;;16.27;13.32;;;15.10;76.60;;;;;;4263515;27;20084;-71
2021/11/21 03:02:03;;;;;;;16.80;13.35;;;15.10;76.60;;;;;;4259335;27;20092;-71
2021/11/21 03:04:07;;;;;;;16.88;13.48;;;15.10;76.60;;;;;;4256892;27;20058;-75
2021/11/21 03:06:11;;;;;;;17.38;14.18;;;15.10;76.60;;;;;;4266679;27;20379;-67
2021/11/21 03:08:14;;;;;;;15.95;13.05;;;15.10;76.70;;;;;;4255528;28;20104;-72
2021/11/21 03:10:21;;;;;;;16.48;12.73;;;15.10;76.70;;;;;;4263063;27;20103;-72
2021/11/21 03:12:24;;;;;;;17.98;14.25;;;15.10;76.70;;;;;;4259259;27;20055;-73
2021/11/21 03:14:27;;;;;;;18.63;14.63;;;15.10;76.70;;;;;;4256527;27;20046;-71
2021/11/21 03:16:30;;;;;;;19.35;15.07;;;15.10;76.70;;;;;;4267815;27;20078;-70
2021/11/21 03:18:34;;;;;;;16.35;13.70;;;15.00;76.60;;;;;;4255862;28;20384;-66
2021/11/21 03:20:37;;;;;;;16.90;14.40;;;15.10;76.70;;;;;;4262848;27;20050;-68
2021/11/21 03:22:42;;;;;;;16.98;13.55;;;15.00;76.70;;;;;;4259540;27;20051;-67
2021/11/21 03:24:45;;;;;;;17.23;14.40;;;15.00;76.70;;;;;;4256521;27;20051;-71
2021/11/21 03:26:50;;;;;;;16.65;13.15;;;15.00;76.70;;;;;;4266503;27;20269;-69
2021/11/21 03:28:52;;;;;;;16.92;13.55;;;15.00;76.70;;;;;;4255041;28;20052;-74
2021/11/21 03:30:55;;;;;;;16.73;13.40;;;15.00;76.70;;;;;;4262565;27;20080;-75
2021/11/21 03:32:58;;;;;;;16.95;13.35;;;15.00;76.70;;;;;;4259889;27;20239;-72
2021/11/21 03:35:02;;;;;;;17.77;13.65;;;15.00;76.70;;;;;;4256298;27;20055;-67
2021/11/21 03:37:06;;;;;;;15.00;12.88;;;15.00;76.70;;;;;;4269387;27;20131;-71
2021/11/21 03:39:09;;;;;;;18.05;14.15;;;15.00;76.70;;;;;;4258466;27;20088;-69
2021/11/21 03:41:11;;;;;;;18.02;14.50;;;15.00;76.70;;;;;;4264910;27;20038;-65
2021/11/21 03:43:16;;;;;;;18.30;14.27;;;15.00;76.70;;;;;;4263901;27;20059;-69
2021/11/21 03:45:19;;;;;;;18.92;14.02;;;15.00;76.70;;;;;;4259721;27;20112;-74
2021/11/21 03:47:22;;;;;;;18.42;14.43;;;15.00;76.70;;;;;;4269801;27;20055;-74
2021/11/21 03:49:25;;;;;;;17.67;13.27;;;15.00;76.70;;;;;;4258571;27;20396;-71
2021/11/21 03:51:28;;;;;;;16.48;13.85;;;15.00;76.70;;;;;;4263242;27;20070;-70
2021/11/21 03:53:31;;;;;;;17.13;13.63;;;15.00;76.70;;;;;;4270037;27;20042;-66
2021/11/21 03:55:34;;;;;;;20.00;14.68;;;15.00;76.70;;;;;;4275358;27;20050;-69
2021/11/21 03:57:37;;;;;;;17.85;13.35;;;14.90;76.70;;;;;;4270183;27;20334;-64
2021/11/21 03:59:42;;;;;;;17.30;14.90;;;15.00;76.70;;;;;;4258413;27;20058;-68
2021/11/21 04:01:45;;;;;;;18.13;14.00;;;15.00;76.70;;;;;;4246011;27;20081;-69
2021/11/21 04:03:48;;;;;;;21.17;15.38;;;15.00;76.80;;;;;;4265184;27;20096;-73
2021/11/21 04:05:51;;;;;;;17.48;13.48;;;15.00;76.80;;;;;;4258758;27;20047;-70
2021/11/21 04:07:54;;;;;;;17.52;14.02;;;14.90;76.70;;;;;;4244907;27;20059;-64
2021/11/21 04:09:57;;;;;;;18.50;14.07;;;15.00;76.80;;;;;;4274975;27;20477;-69
2021/11/21 04:12:00;;;;;;;17.50;13.38;;;14.90;76.70;;;;;;4269906;27;20047;-70
2021/11/21 04:14:04;;;;;;;18.15;13.93;;;15.00;76.70;;;;;;4267469;27;20234;-68
2021/11/21 04:16:08;;;;;;;20.55;15.25;;;15.00;76.80;;;;;;4274497;27;20050;-68
2021/11/21 04:18:11;;;;;;;17.52;13.45;;;15.00;76.80;;;;;;4262204;27;20089;-74
2021/11/21 04:20:14;;;;;;;20.15;14.63;;;15.00;76.80;;;;;;4275063;27;20054;-74
2021/11/21 04:22:18;;;;;;;19.90;14.57;;;14.90;76.80;;;;;;4270062;27;20337;-65
2021/11/21 04:24:20;;;;;;;18.63;13.90;;;15.00;76.80;;;;;;4266921;27;20050;-73
2021/11/21 04:26:24;;;;;;;18.65;14.10;;;14.90;76.70;;;;;;4274891;27;20064;-74
2021/11/21 04:28:28;;;;;;;19.00;15.13;;;14.90;76.80;;;;;;4262119;27;20050;-74
2021/11/21 04:30:31;;;;;;;18.58;14.27;;;14.90;76.80;;;;;;4275270;27;20051;-69
2021/11/21 04:32:38;;;;;;;20.38;15.18;;;14.90;76.80;;;;;;4271034;27;20050;-72
2021/11/21 04:34:41;;;;;;;20.48;14.68;;;14.90;76.80;;;;;;4258874;27;20077;-76
2021/11/21 04:36:44;;;;;;;20.17;14.50;;;14.90;76.80;;;;;;4259194;27;20058;-75
2021/11/21 04:38:48;;;;;;;19.05;14.70;;;14.90;76.80;;;;;;4271593;27;20080;-75
2021/11/21 04:40:53;;;;;;;19.25;15.02;;;14.90;76.80;;;;;;4257897;27;20266;-75
2021/11/21 04:42:55;;;;;;;;;;;14.90;76.80;;;;;;4262415;27;20043;-75
2021/11/21 04:44:58;;;;;;;19.67;13.85;;;14.90;76.80;;;;;;4265885;27;19916;-74
2021/11/21 04:47:02;;;;;;;19.38;14.45;;;14.90;76.90;;;;;;4257111;27;20050;-75
2021/11/21 04:49:06;;;;;;;19.27;13.93;;;14.90;76.90;;;;;;4269470;27;20051;-67
2021/11/21 04:51:11;;;;;;;19.35;14.35;;;14.90;76.90;;;;;;4257064;27;20046;-64
2021/11/21 04:53:14;;;;;;;20.30;15.30;;;14.90;76.90;;;;;;4260812;27;20047;-65
2021/11/21 04:55:17;;;;;;;20.25;14.07;;;14.90;76.90;;;;;;4265916;27;20448;-64
2021/11/21 04:57:20;;;;;;;19.73;15.02;;;14.90;77.00;;;;;;4257117;27;20085;-72
2021/11/21 04:59:23;;;;;;;20.35;14.88;;;14.90;77.00;;;;;;4269054;27;20051;-75
2021/11/21 05:01:26;;;;;;;20.75;14.85;;;14.90;77.00;;;;;;4257369;27;20224;-71
2021/11/21 05:03:30;;;;;;;21.15;14.60;;;14.90;76.90;;;;;;4259856;27;20089;-72
2021/11/21 05:05:35;;;;;;;21.17;14.93;;;14.90;77.00;;;;;;4266281;27;20957;-64
2021/11/21 05:07:38;;;;;;;19.65;14.57;;;14.90;77.00;;;;;;4257078;27;20051;-65
2021/11/21 05:09:41;;;;;;;21.77;15.75;;;14.90;77.00;;;;;;4268626;27;20091;-70
2021/11/21 05:11:45;;;;;;;20.23;14.98;;;14.90;77.00;;;;;;4257341;27;20232;-74
2021/11/21 05:13:47;;;;;;;20.45;14.48;;;14.90;77.00;;;;;;4259287;27;20095;-67
2021/11/21 05:15:50;;;;;;;20.63;15.02;;;14.80;76.90;;;;;;4267600;27;20072;-70
2021/11/21 05:17:54;;;;;;;20.02;14.68;;;14.90;77.00;;;;;;4257344;27;20396;-74
2021/11/21 05:20:00;;;;;;;21.02;15.35;;;14.90;77.60;;;;;;4267617;27;20043;-72
2021/11/21 05:22:04;;;;;;;20.77;14.90;;;14.80;77.00;;;;;;4257665;27;20081;-73
2021/11/21 05:24:08;;;;;;;;;;;14.90;77.10;;;;;;4259472;27;20080;-68
2021/11/21 05:26:11;;;;;;;18.42;13.80;;;14.90;77.10;;;;;;4266519;27;19953;-72
2021/11/21 05:28:14;;;;;;;20.38;14.68;;;14.80;77.00;;;;;;4256216;27;20055;-68
2021/11/21 05:30:19;;;;;;;18.85;14.18;;;14.80;77.10;;;;;;4267423;27;20047;-65
2021/11/21 05:32:22;;;;;;;;;;;14.80;77.10;;;;;;4258173;27;20051;-68
2021/11/21 05:34:25;;;;;;;19.58;14.38;;;14.80;77.10;;;;;;4257863;27;19915;-65
2021/11/21 05:36:27;;;;;;;19.80;14.15;;;14.80;77.10;;;;;;4266628;27;20043;-66
2021/11/21 05:38:32;;;;;;;20.48;14.98;;;14.80;77.10;;;;;;4256388;27;20392;-67
2021/11/21 05:40:35;;;;;;;21.33;14.85;;;14.80;77.10;;;;;;4266871;27;20205;-65
2021/11/21 05:42:39;;;;;;;19.13;14.13;;;14.80;77.10;;;;;;4258090;27;20174;-66
2021/11/21 05:44:42;;;;;;;22.30;14.95;;;14.80;77.10;;;;;;4257582;27;20088;-73
2021/11/21 05:46:45;;;;;;;18.92;14.27;;;14.80;77.10;;;;;;4267042;27;20051;-73
2021/11/21 05:48:48;;;;;;;19.25;14.48;;;14.80;77.10;;;;;;4256337;27;20051;-74
2021/11/21 05:50:51;;;;;;;20.65;14.55;;;14.80;77.10;;;;;;4260181;27;20047;-78
2021/11/21 05:52:54;;;;;;;19.77;14.20;;;14.80;77.20;;;;;;4271269;27;20099;-76
2021/11/21 05:54:58;;;;;;;18.58;13.63;;;14.80;77.20;;;;;;4272918;27;20095;-76
2021/11/21 05:57:01;;;;;;;18.98;14.35;;;14.80;77.20;;;;;;4257446;27;20398;-75
2021/11/21 05:59:04;;;;;;;18.73;14.20;;;14.80;77.20;;;;;;4255644;27;20047;-75
2021/11/21 06:01:07;;;;;;;19.88;14.50;;;14.80;77.20;;;;;;4265137;27;20220;-76
2021/11/21 06:03:10;;;;;;;19.55;14.25;;;14.80;77.10;;;;;;4259576;27;20051;-76
2021/11/21 06:05:13;;;;;;;19.73;14.38;;;14.80;77.20;;;;;;4256999;27;20051;-73
2021/11/21 06:07:16;;;;;;;19.73;13.90;;;14.80;77.20;;;;;;4267212;27;20058;-65
2021/11/21 06:09:19;;;;;;;17.40;12.82;;;14.80;77.20;;;;;;4255736;27;20100;-70
2021/11/21 06:11:23;;;;;;;18.05;13.75;;;14.80;77.20;;;;;;4245996;27;20194;-75
2021/11/21 06:13:27;;;;;;;19.27;13.52;;;14.80;77.20;;;;;;4259531;27;20051;-73
2021/11/21 06:15:30;;;;;;;19.00;13.38;;;14.80;77.20;;;;;;4257094;27;20360;-74
2021/11/21 06:17:33;;;;;;;18.52;13.52;;;14.80;77.30;;;;;;4267345;27;20360;-64
2021/11/21 06:19:38;;;;;;;19.65;13.15;;;14.80;77.30;;;;;;4255894;27;20055;-65
2021/11/21 06:21:41;;;;;;;20.00;13.38;;;14.70;77.30;;;;;;4263644;27;20264;-68
2021/11/21 06:23:44;;;;;;;17.77;12.60;;;14.80;77.30;;;;;;4259859;27;20051;-65
2021/11/21 06:25:47;;;;;;;16.75;12.30;;;14.80;77.30;;;;;;4257066;27;20088;-68
2021/11/21 06:27:51;;;;;;;18.92;13.18;;;14.70;77.20;;;;;;4267459;27;20266;-68
2021/11/21 06:29:54;;;;;;;17.90;13.05;;;14.80;77.30;;;;;;4256086;27;20479;-71
2021/11/21 06:31:57;;;;;;;17.63;13.20;;;14.70;77.30;;;;;;4263383;27;20120;-70
2021/11/21 06:34:00;;;;;;;17.95;12.93;;;14.80;77.30;;;;;;4261171;27;20100;-65
2021/11/21 06:36:04;;;;;;;17.48;12.57;;;14.70;77.30;;;;;;4257661;27;20055;-72
2021/11/21 06:38:08;;;;;;;17.33;12.85;;;14.80;77.30;;;;;;4267277;27;20070;-69
2021/11/21 06:40:12;;;;;;;18.67;13.05;;;14.70;77.30;;;;;;4255349;27;20108;-70
2021/11/21 06:42:15;;;;;;;18.88;13.43;;;14.70;77.30;;;;;;4262562;27;20047;-69
2021/11/21 06:44:19;;;;;;;16.83;12.65;;;14.70;77.30;;;;;;4260789;27;20051;-70
2021/11/21 06:46:22;;;;;;;15.35;12.07;;;14.70;77.30;;;;;;4256858;27;20104;-68
2021/11/21 06:48:25;;;;;;;18.15;12.82;;;14.70;77.30;;;;;;4266764;27;20096;-72
2021/11/21 06:50:28;;;;;;;18.88;12.43;;;14.70;77.30;;;;;;4255699;28;20331;-74
2021/11/21 06:52:33;;;;;;;19.08;13.00;;;14.70;77.30;;;;;;4262127;27;20054;-67
2021/11/21 06:54:36;;;;;;;15.57;12.18;;;14.70;77.30;;;;;;4261595;27;20391;-64
2021/11/21 06:56:39;;;;;;;16.88;12.10;;;14.70;77.30;;;;;;4257159;27;20051;-70
2021/11/21 06:58:42;;;;;;;16.73;12.27;;;14.70;77.40;;;;;;4266809;27;20343;-65
2021/11/21 07:00:47;;;;;;;17.45;12.05;;;14.70;77.40;;;;;;4256275;28;20051;-73
2021/11/21 07:02:51;;;;;;;16.83;12.50;;;14.70;77.40;;;;;;4262682;27;20322;-69
2021/11/21 07:04:54;;;;;;;18.65;12.93;;;14.70;77.40;;;;;;4260630;27;20047;-74
2021/11/21 07:06:57;;;;;;;16.55;11.48;;;14.70;77.40;;;;;;4256400;27;20055;-73
2021/11/21 07:09:00;;;;;;;17.10;12.18;;;14.70;77.40;;;;;;4268414;27;20055;-75
2021/11/21 07:11:03;;;;;;;16.58;12.10;;;14.70;77.40;;;;;;4260094;27;20054;-74
2021/11/21 07:13:06;;;;;;;14.90;10.85;;;14.70;77.40;;;;;;4262008;27;20047;-74
2021/11/21 07:15:10;;;;;;;16.50;12.45;;;14.70;77.40;;;;;;4269364;27;20330;-75
2021/11/21 07:17:14;;;;;;;15.93;11.57;;;14.70;77.40;;;;;;4274262;27;20284;-75
2021/11/21 07:19:21;;;;;;;16.00;11.38;;;14.70;77.50;;;;;;4269616;27;20047;-72
2021/11/21 07:21:25;;;;;;;15.65;11.25;;;14.70;77.40;;;;;;4257460;27;20047;-70
2021/11/21 07:23:28;;;;;;;14.90;11.57;;;14.70;77.40;;;;;;4264167;27;20068;-68
2021/11/21 07:25:31;;;;;;;14.93;10.75;;;14.70;77.50;;;;;;4265047;27;20051;-65
2021/11/21 07:27:34;;;;;;;15.38;11.13;;;14.70;77.50;;;;;;4257067;27;20051;-66
2021/11/21 07:29:37;;;;;;;16.42;11.23;;;14.70;77.50;;;;;;4268195;27;20055;-72
2021/11/21 07:31:41;;;;;;;15.68;11.45;;;14.70;77.50;;;;;;4258223;27;20054;-71
2021/11/21 07:33:45;;;;;;;15.05;10.77;;;14.70;77.50;;;;;;4263323;27;20054;-73
2021/11/21 07:35:48;;;;;;;17.05;12.10;;;14.70;77.50;;;;;;4265348;27;20439;-70
2021/11/21 07:37:51;;;;;;;15.50;11.10;;;14.70;77.50;;;;;;4255618;27;20054;-71
2021/11/21 07:39:54;;;;;;;15.65;11.35;;;14.70;77.50;;;;;;4262595;27;20293;-71
2021/11/21 07:41:58;;;;;;;16.40;11.20;;;14.70;77.50;;;;;;4275561;27;20094;-70
2021/11/21 07:44:03;;;;;;;14.63;11.03;;;14.70;77.60;;;;;;4270506;27;20084;-68
2021/11/21 07:46:07;;;;;;;16.00;11.55;;;14.70;77.60;;;;;;4266753;27;20091;-70
2021/11/21 07:48:10;;;;;;;14.85;11.05;;;14.70;77.50;;;;;;4274998;27;20050;-74
2021/11/21 07:50:14;;;;;;;15.23;10.68;;;14.60;77.50;;;;;;4270677;27;20437;-68
2021/11/21 07:52:17;;;;;;;16.65;11.05;;;14.60;77.50;;;;;;4257651;27;20289;-67
2021/11/21 07:54:21;;;;;;;14.90;10.70;;;14.70;77.60;;;;;;4264380;27;20043;-74
2021/11/21 07:56:24;;;;;;;14.70;10.95;;;14.60;77.50;;;;;;4267152;27;20051;-75
2021/11/21 07:58:28;;;;;;;14.13;10.48;;;14.70;77.60;;;;;;4275243;27;20054;-74
2021/11/21 08:00:31;;;;;;;15.23;10.90;;;14.70;77.60;;;;;;4261704;27;20059;-73
2021/11/21 08:02:34;;;;;;;15.52;10.80;;;14.60;77.60;;;;;;4273254;27;20050;-66
2021/11/21 08:04:38;;;;;;;13.95;10.45;;;14.70;77.60;;;;;;4270996;27;20085;-64
2021/11/21 08:06:43;;;;;;;16.05;10.68;;;14.70;77.60;;;;;;4248063;27;20077;-68
2021/11/21 08:08:46;;;;;;;14.60;10.32;;;14.60;77.60;;;;;;4274458;27;20046;-67
2021/11/21 08:10:49;;;;;;;15.75;10.23;;;14.70;77.60;;;;;;4273170;27;20400;-64
2021/11/21 08:12:52;;;;;;;13.70;10.07;;;14.70;78.20;;;;;;4257641;27;20054;-68
2021/11/21 08:14:56;;;;;;;13.82;10.55;;;14.70;77.60;;;;;;4260869;27;20511;-66
2021/11/21 08:16:59;;;;;;;13.48;9.95;;;14.60;77.60;;;;;;4266438;27;20047;-74
2021/11/21 08:19:02;;;;;;;14.10;10.30;;;14.60;77.60;;;;;;4256793;27;20059;-74
2021/11/21 08:21:05;;;;;;;15.50;11.23;;;14.60;77.60;;;;;;4268862;27;20491;-74
2021/11/21 08:23:09;;;;;;;15.57;10.80;;;14.60;77.60;;;;;;4255913;27;20380;-64
2021/11/21 08:25:12;;;;;;;14.80;9.77;;;14.60;77.60;;;;;;4260136;27;20343;-71
2021/11/21 08:27:15;;;;;;;15.18;10.77;;;14.60;77.60;;;;;;4267025;27;20063;-71
2021/11/21 08:29:18;;;;;;;14.25;9.98;;;14.70;77.70;;;;;;4257502;27;20056;-66
2021/11/21 08:31:32;;;;;;;14.90;10.25;;;14.60;77.70;;;;;;4262098;27;20051;-69
2021/11/21 08:33:35;;;;;;;12.60;9.50;;;14.60;77.70;;;;;;4257946;27;20051;-74
2021/11/21 08:35:39;;;;;;;14.18;10.25;;;14.60;77.70;;;;;;4260293;27;20099;-72
2021/11/21 08:37:42;;;;;;;14.18;9.82;;;14.70;77.70;;;;;;4266122;27;20112;-72
2021/11/21 08:39:46;;;;;;;13.57;10.20;;;14.60;77.70;;;;;;4257249;27;20054;-73
2021/11/21 08:41:51;;;;;;;13.63;9.88;;;14.60;77.70;;;;;;4268623;27;20283;-73
2021/11/21 08:43:56;;;;;;;14.65;10.23;;;14.60;77.70;;;;;;4274230;27;20051;-74
2021/11/21 08:45:59;;;;;;;14.80;10.13;;;14.60;77.70;;;;;;4269851;27;20055;-65
2021/11/21 08:48:03;;;;;;;13.65;9.82;;;14.60;77.70;;;;;;4264037;27;20054;-72
2021/11/21 08:50:08;;;;;;;13.52;9.38;;;14.60;77.80;;;;;;4256077;27;20077;-75
2021/11/21 08:52:11;;;;;;;;;;;14.70;77.80;;;;;;4262070;27;20047;-72
2021/11/21 08:54:16;;;;;;;12.90;9.10;;;14.60;77.80;;;;;;4273991;27;19922;-73
2021/11/21 08:56:21;;;;;;;12.93;8.82;;;14.60;77.90;;;;;;4267908;27;20338;-68
2021/11/21 08:58:24;;;;;;;13.35;9.65;;;14.60;77.80;;;;;;4265122;27;20039;-75
2021/11/21 09:00:27;;;;;;;13.32;9.77;;;14.60;77.80;;;;;;4256132;27;20081;-71
2021/11/21 09:02:30;;;;;;;13.23;9.63;;;14.60;77.80;;;;;;4261882;27;20051;-68
2021/11/21 09:04:33;;;;;;;14.00;9.50;;;14.60;77.80;;;;;;4271503;27;20039;-71
2021/11/21 09:06:36;;;;;;;13.07;9.40;;;14.60;77.80;;;;;;4270998;27;20072;-66
2021/11/21 09:08:39;;;;;;;12.65;9.45;;;14.60;77.90;;;;;;4265074;27;20046;-65
2021/11/21 09:10:42;;;;;;;12.13;9.23;;;14.60;77.80;;;;;;4274252;27;20327;-70
2021/11/21 09:12:48;;;;;;;13.10;9.27;;;14.60;77.80;;;;;;4263339;27;20055;-68
2021/11/21 09:14:53;;;;;;;13.80;9.60;;;14.60;77.90;;;;;;4272466;27;20068;-71
2021/11/21 09:16:56;;;;;;;12.50;9.02;;;14.60;77.80;;;;;;4270812;27;20046;-71
2021/11/21 09:18:59;;;;;;;12.05;8.88;;;14.60;77.80;;;;;;4263878;27;20054;-75
2021/11/21 09:21:02;;;;;;;12.35;9.02;;;14.60;77.90;;;;;;4273550;27;20050;-75
2021/11/21 09:23:11;;;;;;;12.40;9.32;;;14.60;77.90;;;;;;4261720;27;20051;-68
2021/11/21 09:25:14;;;;;;;12.55;9.15;;;14.60;77.80;;;;;;4271306;27;20111;-73
2021/11/21 09:27:17;;;;;;;11.48;7.97;;;14.60;77.90;;;;;;4270274;27;20046;-66
2021/11/21 09:29:21;;;;;;;12.38;8.80;;;14.60;77.80;;;;;;4263833;27;20375;-68
2021/11/21 09:31:24;;;;;;;11.48;8.77;;;14.60;77.90;;;;;;4273379;27;20133;-72
2021/11/21 09:33:29;;;;;;;12.38;8.48;;;14.60;77.90;;;;;;4260807;27;20051;-68
2021/11/21 09:35:32;;;;;;;13.32;9.35;;;14.60;77.90;;;;;;4254025;27;20270;-73
2021/11/21 09:37:35;;;;;;;11.43;8.73;;;14.60;77.90;;;;;;4268890;27;20384;-73
2021/11/21 09:39:38;;;;;;;12.07;9.10;;;14.60;78.00;;;;;;4265515;27;20053;-68
2021/11/21 09:41:43;;;;;;;11.35;8.20;;;14.60;77.90;;;;;;4252657;27;20106;-73
2021/11/21 09:43:46;;;;;;;13.27;9.07;;;14.60;77.90;;;;;;4267474;27;20261;-66
2021/11/21 09:45:50;;;;;;;11.43;8.52;;;14.60;77.90;;;;;;4256774;27;20057;-65
2021/11/21 09:47:56;;;;;;;12.98;9.32;;;14.60;78.00;;;;;;4258619;27;20051;-71
2021/11/21 09:50:04;;;;;;;12.90;9.02;;;14.60;78.00;;;;;;4266369;27;20051;-74
2021/11/21 09:52:08;;;;;;;11.23;8.63;;;14.60;78.00;;;;;;4257083;27;20120;-70
2021/11/21 09:54:12;;;;;;;11.38;8.43;;;14.60;78.00;;;;;;4268400;27;20047;-71
2021/11/21 09:56:15;;;;;;;9.90;7.68;;;14.60;78.00;;;;;;4256771;27;20270;-75
2021/11/21 09:58:18;;;;;;;9.63;7.18;;;14.60;78.20;;;;;;4258912;27;20043;-72
2021/11/21 10:00:23;;;;;;;8.65;7.18;;;14.60;78.50;;;;;;4253307;27;20128;-65
2021/11/21 10:02:31;;;;;;;8.93;7.10;;;14.70;78.60;;;;;;4273300;27;20047;-69
2021/11/21 10:04:42;;;;;;;11.27;7.35;;;14.70;78.60;;;;;;4268649;27;20099;-70
2021/11/21 10:06:46;;;;;;;9.70;6.95;;;14.70;79.10;;;;;;4256241;27;20058;-75
2021/11/21 10:08:50;;;;;;;10.25;7.43;;;14.70;78.50;;;;;;4260479;27;20054;-75
2021/11/21 10:10:55;;;;;;;9.95;7.50;;;14.60;78.40;;;;;;4261998;27;20119;-75
2021/11/21 10:12:58;;;;;;;9.35;7.05;;;14.60;78.40;;;;;;4256351;27;20063;-74
2021/11/21 10:15:04;;;;;;;9.80;7.50;;;14.70;78.30;;;;;;4268432;27;20050;-75
2021/11/21 10:17:18;;;;;;;10.68;7.95;;;14.70;78.40;;;;;;4272075;27;20310;-75
2021/11/21 10:19:23;;;;;;;9.95;7.20;;;14.70;78.30;;;;;;4266994;27;20051;-75
2021/11/21 10:21:28;;;;;;;8.88;7.00;;;14.70;78.30;;;;;;4266743;27;20340;-75
2021/11/21 10:23:31;;;;;;;9.65;7.55;;;14.70;78.30;;;;;;4270601;27;20050;-73
2021/11/21 10:25:46;;;;;;;9.00;6.95;;;14.70;78.30;;;;;;4266741;27;20099;-75
2021/11/21 10:28:01;;;;;;;9.65;7.25;;;14.60;78.30;;;;;;4256580;27;20395;-75
2021/11/21 10:30:05;;;;;;;9.45;7.28;;;14.70;78.20;;;;;;4265539;27;20055;-72